Time;durP1;ratioP1;P1;durP2;ratioP2;P2;SDS_P1;SDS_P2;PMS_P1;PMS_P2;Temp;Humidity;BMP_temperature;BMP_pressure;BME280_temperature;BME280_humidity;BME280_pressure;Samples;Min_cycle;Max_cycle;Signal;HPM_P1;HPM_P2
2021/11/22 00:00:26;;;;;;;10.10;8.50;;;;;;;9.38;62.45;98610.32;1762395;80;21036;-38
2021/11/22 00:02:54;;;;;;;10.35;8.83;;;;;;;9.37;62.43;98614.95;1782764;80;21084;-38
2021/11/22 00:05:21;;;;;;;9.08;8.13;;;;;;;9.30;62.38;98611.36;1785121;80;21566;-38
2021/11/22 00:07:48;;;;;;;11.80;7.87;;;;;;;9.27;62.57;98616.95;1784973;79;20890;-38
2021/11/22 00:10:17;;;;;;;9.75;8.15;;;;;;;9.29;62.62;98617.95;1785554;79;21032;-38
2021/11/22 00:12:45;;;;;;;9.73;7.87;;;;;;;9.31;62.55;98621.83;1773625;79;21010;-38
2021/11/22 00:15:16;;;;;;;9.03;7.67;;;;;;;9.27;62.45;98616.95;1770757;80;20965;-38
2021/11/22 00:17:43;;;;;;;8.63;7.47;;;;;;;9.23;62.52;98618.05;1774059;79;20909;-38
2021/11/22 00:20:13;;;;;;;9.83;7.45;;;;;;;9.21;62.66;98624.39;1719395;83;20978;-38
2021/11/22 00:22:43;;;;;;;8.68;7.75;;;;;;;9.19;62.65;98625.35;1784651;80;21263;-38
2021/11/22 00:25:11;;;;;;;7.75;6.15;;;;;;;9.15;62.73;98633.40;1779969;79;21515;-38
2021/11/22 00:27:40;;;;;;;9.75;8.53;;;;;;;9.12;62.80;98632.80;1777683;79;20922;-38
2021/11/22 00:30:10;;;;;;;12.82;7.75;;;;;;;9.09;62.83;98642.43;1775810;79;20960;-38
2021/11/22 00:32:45;;;;;;;9.45;7.20;;;;;;;9.10;62.81;98643.97;1759917;81;21056;-38
2021/11/22 00:35:32;;;;;;;9.33;7.30;;;;;;;9.13;62.77;98643.25;1749563;81;21045;-38
2021/11/22 00:37:56;;;;;;;9.80;7.83;;;;;;;9.15;62.75;98647.70;1770860;80;21524;-38
2021/11/22 00:40:23;;;;;;;10.20;8.10;;;;;;;9.16;62.77;98643.86;1770923;81;21813;-38
2021/11/22 00:42:50;;;;;;;10.70;8.65;;;;;;;9.16;62.77;98647.91;1772494;79;21594;-38
2021/11/22 00:45:17;;;;;;;10.78;7.78;;;;;;;9.15;62.68;98645.00;1736257;82;21230;-38
2021/11/22 00:47:45;;;;;;;10.32;8.28;;;;;;;9.13;62.75;98640.55;1712681;83;21500;-38
2021/11/22 00:50:13;;;;;;;9.20;7.67;;;;;;;9.09;62.86;98642.43;1723634;82;21045;-38
2021/11/22 00:52:40;;;;;;;9.40;8.05;;;;;;;9.06;62.98;98647.77;1729627;82;21116;-38
2021/11/22 00:55:08;;;;;;;8.80;7.00;;;;;;;9.02;63.03;98650.44;1726225;82;21855;-38
2021/11/22 00:57:35;;;;;;;9.43;7.85;;;;;;;9.03;63.05;98650.65;1733414;82;21065;-38
2021/11/22 01:00:04;;;;;;;10.70;8.13;;;;;;;9.06;62.96;98655.31;1729777;82;21002;-38
2021/11/22 01:02:31;;;;;;;11.73;8.98;;;;;;;9.06;63.05;98659.94;1730496;82;21516;-38
2021/11/22 01:04:58;;;;;;;9.50;8.20;;;;;;;9.04;63.12;98664.38;1735815;82;21481;-38
2021/11/22 01:07:26;;;;;;;10.03;8.50;;;;;;;9.01;63.26;98667.02;1735947;82;21552;-38
2021/11/22 01:09:53;;;;;;;11.60;9.15;;;;;;;8.97;63.41;98664.27;1734041;81;21583;-38
2021/11/22 01:12:20;;;;;;;10.10;8.45;;;;;;;8.93;63.55;98662.66;1721290;81;21081;-38
2021/11/22 01:14:48;;;;;;;11.93;8.20;;;;;;;8.88;63.70;98659.70;1735958;82;21037;-38
2021/11/22 01:17:16;;;;;;;11.20;7.58;;;;;;;8.86;63.80;98663.33;1730190;82;21119;-38
2021/11/22 01:19:43;;;;;;;10.78;7.90;;;;;;;8.90;63.81;98666.89;1716130;82;20946;-38
2021/11/22 01:22:11;;;;;;;10.70;8.05;;;;;;;8.95;63.82;98663.09;1733404;82;20922;-38
2021/11/22 01:24:38;;;;;;;9.78;8.48;;;;;;;8.94;63.82;98666.93;1735870;82;21583;-38
2021/11/22 01:27:06;;;;;;;10.23;8.40;;;;;;;8.91;63.82;98664.37;1735863;81;21547;-38
2021/11/22 01:29:33;;;;;;;9.90;8.90;;;;;;;8.91;63.84;98665.72;1730142;82;21155;-38
2021/11/22 01:32:00;;;;;;;10.88;8.43;;;;;;;8.89;63.91;98664.54;1742321;82;21080;-38
2021/11/22 01:34:28;;;;;;;10.60;8.93;;;;;;;8.87;63.95;98665.47;1743182;82;20957;-38
2021/11/22 01:36:55;;;;;;;10.48;7.95;;;;;;;8.83;64.07;98666.77;1744008;82;20980;-38
2021/11/22 01:39:23;;;;;;;10.28;7.65;;;;;;;8.81;64.02;98669.05;1744767;81;21837;-38
2021/11/22 01:41:50;;;;;;;8.85;7.42;;;;;;;8.85;64.07;98672.60;1727400;82;21141;-38
2021/11/22 01:44:17;;;;;;;9.30;7.65;;;;;;;8.90;63.96;98666.89;1740515;82;21029;-38
2021/11/22 01:46:48;;;;;;;9.33;7.97;;;;;;;8.91;63.84;98665.72;1744199;82;21046;-38
2021/11/22 01:49:17;;;;;;;9.13;8.20;;;;;;;8.92;63.78;98669.20;1746217;81;20941;-38
2021/11/22 01:51:44;;;;;;;10.82;8.18;;;;;;;8.90;63.76;98664.19;1728814;82;22063;-38
2021/11/22 01:54:12;;;;;;;10.23;7.67;;;;;;;8.89;63.78;98670.73;1738438;82;21527;-38
2021/11/22 01:56:41;;;;;;;9.50;7.80;;;;;;;8.88;63.76;98673.22;1739996;82;21033;-38
2021/11/22 01:59:08;;;;;;;14.03;8.33;;;;;;;8.87;63.77;98670.88;1728836;81;21009;-38
2021/11/22 02:01:35;;;;;;;8.43;7.22;;;;;;;8.85;63.82;98671.25;1721835;82;21041;-38
2021/11/22 02:04:03;;;;;;;9.98;7.30;;;;;;;8.88;63.75;98663.76;1761723;81;21032;-38
2021/11/22 02:06:30;;;;;;;9.65;7.90;;;;;;;8.94;63.64;98666.36;1762211;81;21273;-38
2021/11/22 02:08:57;;;;;;;10.05;8.35;;;;;;;8.96;63.54;98665.41;1732820;82;20953;-38
2021/11/22 02:11:25;;;;;;;9.08;7.83;;;;;;;8.94;63.49;98673.13;1723252;82;21012;-38
2021/11/22 02:13:52;;;;;;;10.53;8.43;;;;;;;8.90;63.56;98675.00;1722641;82;21033;-38
2021/11/22 02:16:20;;;;;;;8.95;7.78;;;;;;;8.88;63.58;98676.48;1716256;83;20974;-38
2021/11/22 02:18:48;;;;;;;9.48;8.10;;;;;;;8.83;63.64;98677.58;1725008;82;21161;-38
2021/11/22 02:21:15;;;;;;;10.72;8.20;;;;;;;8.76;63.80;98673.44;1744006;82;21040;-38
2021/11/22 02:23:45;;;;;;;11.78;8.63;;;;;;;8.37;63.88;98628.27;1744441;82;21490;-38
2021/11/22 02:26:13;;;;;;;11.10;8.03;;;;;;;8.64;64.00;98681.73;1778608;79;21014;-38
2021/11/22 02:28:41;;;;;;;8.45;7.33;;;;;;;8.61;64.14;98694.06;1742538;81;21769;-38
2021/11/22 02:31:08;;;;;;;9.95;7.62;;;;;;;8.58;64.23;98686.66;1738712;81;21182;-38
2021/11/22 02:33:36;;;;;;;9.80;8.03;;;;;;;8.57;64.37;98685.66;1744240;82;21358;-38
2021/11/22 02:36:05;;;;;;;9.60;7.53;;;;;;;8.54;64.54;98691.80;1746806;82;21546;-38
2021/11/22 02:38:39;;;;;;;10.18;8.35;;;;;;;8.52;64.70;98684.64;1746623;82;21024;-38
2021/11/22 02:41:07;;;;;;;10.23;8.93;;;;;;;8.50;64.77;98686.91;1744798;82;21032;-38
2021/11/22 02:43:38;;;;;;;10.35;8.38;;;;;;;8.49;64.79;98692.88;1745408;82;21377;-48
2021/11/22 02:46:05;;;;;;;11.75;8.63;;;;;;;8.17;64.84;98646.43;1748463;82;21001;-39
2021/11/22 02:48:33;;;;;;;10.55;7.25;;;;;;;8.48;64.93;98696.72;1723668;82;21498;-38
2021/11/22 02:51:02;;;;;;;9.33;7.95;;;;;;;8.53;64.92;98704.52;1743563;82;21071;-38
2021/11/22 02:53:30;;;;;;;11.20;7.87;;;;;;;8.57;64.88;98696.47;1746918;82;21036;-38
2021/11/22 02:56:06;;;;;;;10.93;8.55;;;;;;;8.56;64.94;98699.77;1741868;82;21104;-38
2021/11/22 02:58:37;;;;;;;9.50;8.05;;;;;;;8.60;64.87;98699.25;1746044;80;21074;-38
2021/11/22 03:01:07;;;;;;;8.63;7.12;;;;;;;8.64;64.85;98700.08;1725942;82;20956;-38
2021/11/22 03:03:34;;;;;;;9.40;8.23;;;;;;;8.66;64.77;98701.86;1746728;82;20997;-38
2021/11/22 03:06:09;;;;;;;10.72;8.90;;;;;;;8.67;64.75;98703.97;1748546;82;20997;-38
2021/11/22 03:08:42;;;;;;;10.53;7.65;;;;;;;8.67;64.72;98696.64;1732560;82;21632;-38
2021/11/22 03:11:11;;;;;;;9.33;7.37;;;;;;;8.67;64.70;98706.09;1739095;82;21519;-38
2021/11/22 03:13:40;;;;;;;10.18;7.95;;;;;;;8.72;64.69;98711.77;1714971;83;21011;-38
2021/11/22 03:16:07;;;;;;;9.93;8.55;;;;;;;8.75;64.68;98712.41;1717612;83;21021;-38
2021/11/22 03:18:35;;;;;;;9.90;7.90;;;;;;;8.75;64.68;98719.17;1726583;82;21495;-38
2021/11/22 03:21:03;;;;;;;9.75;8.30;;;;;;;8.77;64.64;98726.33;1719084;83;21872;-38
2021/11/22 03:23:31;;;;;;;10.53;8.28;;;;;;;8.79;64.63;98724.05;1698101;83;20980;-38
2021/11/22 03:25:58;;;;;;;9.83;7.95;;;;;;;8.81;64.49;98725.05;1752669;81;21076;-38
2021/11/22 03:28:26;;;;;;;11.50;8.68;;;;;;;8.80;64.57;98726.19;1757090;79;20965;-38
2021/11/22 03:30:53;;;;;;;9.53;7.83;;;;;;;8.78;64.56;98731.95;1769353;80;21071;-38
2021/11/22 03:33:21;;;;;;;9.73;7.75;;;;;;;8.75;64.63;98737.30;1743253;81;21133;-38
2021/11/22 03:35:50;;;;;;;9.85;7.97;;;;;;;8.77;64.59;98737.70;1742286;82;21544;-38
2021/11/22 03:38:17;;;;;;;10.58;8.15;;;;;;;8.80;64.61;98745.89;1763852;80;21605;-38
2021/11/22 03:40:47;;;;;;;11.03;8.50;;;;;;;8.80;64.65;98747.23;1772907;81;21013;-38
2021/11/22 03:43:26;;;;;;;11.55;8.20;;;;;;;8.80;64.61;98747.23;1768100;81;21052;-38
2021/11/22 03:45:48;;;;;;;10.45;8.20;;;;;;;8.77;64.69;98752.00;1764498;80;21522;-38
2021/11/22 03:48:14;;;;;;;;;;;;;;;8.75;64.79;98757.00;1754737;81;20930;-38
2021/11/22 03:50:42;;;;;;;10.48;8.48;;;;;;;8.73;64.96;98759.27;1752479;80;20129;-38
2021/11/22 03:53:09;;;;;;;9.55;7.40;;;;;;;8.62;65.27;98766.41;1763226;81;20986;-38
2021/11/22 03:55:36;;;;;;;9.78;7.42;;;;;;;8.66;65.28;98771.33;1755505;81;21069;-38
2021/11/22 03:58:03;;;;;;;9.83;7.15;;;;;;;8.75;65.24;98777.27;1772255;79;21116;-38
2021/11/22 04:00:31;;;;;;;8.30;5.95;;;;;;;8.84;65.00;98777.02;1765291;79;21568;-38
2021/11/22 04:03:00;;;;;;;6.75;5.87;;;;;;;8.84;64.69;98781.08;1775014;79;21014;-38
2021/11/22 04:05:28;;;;;;;6.03;5.35;;;;;;;8.84;64.42;98789.97;1745480;79;21033;-38
2021/11/22 04:07:55;;;;;;;6.37;4.75;;;;;;;8.85;64.11;98790.75;1747885;81;21535;-38
2021/11/22 04:10:23;;;;;;;5.58;4.30;;;;;;;8.80;63.78;98797.81;1741977;81;21122;-38
2021/11/22 04:12:50;;;;;;;6.08;3.67;;;;;;;8.74;63.70;98801.38;1759426;81;20914;-38
2021/11/22 04:15:17;;;;;;;4.65;3.50;;;;;;;8.69;63.53;98798.97;1753703;81;21076;-38
2021/11/22 04:17:45;;;;;;;4.45;3.40;;;;;;;8.66;63.29;98805.11;1765362;81;20998;-38
2021/11/22 04:20:13;;;;;;;4.83;4.00;;;;;;;8.62;63.34;98813.13;1748098;81;21038;-38
2021/11/22 04:22:40;;;;;;;5.25;3.33;;;;;;;8.64;63.40;98811.43;1755152;81;21488;-38
2021/11/22 04:25:08;;;;;;;4.90;3.30;;;;;;;8.66;63.35;98821.32;1765231;81;20922;-38
2021/11/22 04:27:36;;;;;;;5.67;3.37;;;;;;;8.71;63.35;98825.83;1769593;79;20981;-38
2021/11/22 04:30:05;;;;;;;4.53;3.75;;;;;;;8.82;63.28;98822.53;1770194;79;21559;-38
2021/11/22 04:32:34;;;;;;;5.25;3.72;;;;;;;8.92;62.93;98826.78;1765244;79;20929;-38
2021/11/22 04:35:04;;;;;;;6.60;3.90;;;;;;;8.95;62.92;98831.48;1719616;83;21800;-38
2021/11/22 04:37:33;;;;;;;5.30;3.10;;;;;;;8.99;62.58;98834.23;1784998;80;20957;-38
2021/11/22 04:40:01;;;;;;;3.60;3.30;;;;;;;9.04;62.28;98836.06;1787024;80;20953;-38
2021/11/22 04:42:29;;;;;;;3.87;2.62;;;;;;;9.06;62.01;98833.77;1761719;79;21522;-38
2021/11/22 04:44:56;;;;;;;3.45;2.65;;;;;;;9.11;61.74;98838.09;1781939;80;21017;-38
2021/11/22 04:47:23;;;;;;;4.40;2.87;;;;;;;9.11;61.31;98838.88;1769220;80;21323;-38
2021/11/22 04:49:52;;;;;;;3.90;2.65;;;;;;;9.12;61.17;98841.80;1774862;80;21491;-38
2021/11/22 04:52:19;;;;;;;3.08;2.40;;;;;;;9.12;61.11;98841.01;1783678;79;21000;-38
2021/11/22 04:54:46;;;;;;;3.30;2.47;;;;;;;9.10;61.01;98844.06;1780373;80;20971;-38
2021/11/22 04:57:14;;;;;;;3.20;2.50;;;;;;;9.07;60.94;98854.27;1789003;79;21024;-38
2021/11/22 04:59:42;;;;;;;4.28;2.83;;;;;;;9.03;61.02;98855.34;1780185;80;21578;-38
2021/11/22 05:02:10;;;;;;;3.50;2.65;;;;;;;9.01;61.19;98861.11;1782706;79;21571;-38
2021/11/22 05:04:37;;;;;;;5.10;2.85;;;;;;;9.00;61.21;98863.63;1772132;79;21072;-38
2021/11/22 05:07:08;;;;;;;4.10;2.35;;;;;;;8.96;61.24;98874.92;1792515;79;21507;-38
2021/11/22 05:09:35;;;;;;;3.40;2.60;;;;;;;8.92;61.15;98872.73;1791547;79;21028;-38
2021/11/22 05:12:03;;;;;;;3.20;2.40;;;;;;;8.82;61.18;98874.67;1792417;79;21926;-38
2021/11/22 05:14:31;;;;;;;5.05;2.58;;;;;;;8.75;61.29;98885.38;1777462;79;21514;-38
2021/11/22 05:16:58;;;;;;;5.22;2.27;;;;;;;8.66;61.36;98890.23;1768214;80;20925;-38
2021/11/22 05:19:30;;;;;;;2.80;2.00;;;;;;;8.60;61.51;98895.70;1769647;79;21002;-38
2021/11/22 05:21:54;;;;;;;3.33;1.90;;;;;;;8.55;61.55;98902.18;1778819;78;21080;-38
2021/11/22 05:24:21;;;;;;;3.10;2.05;;;;;;;8.54;61.63;98903.87;1755957;80;21123;-38
2021/11/22 05:26:48;;;;;;;2.58;1.75;;;;;;;8.52;61.74;98915.62;1768557;80;21004;-38
2021/11/22 05:29:16;;;;;;;2.60;1.85;;;;;;;8.49;61.79;98912.27;1774569;80;20981;-38
2021/11/22 05:31:44;;;;;;;3.47;2.12;;;;;;;8.45;61.92;98918.17;1773872;80;21083;-38
2021/11/22 05:34:11;;;;;;;3.58;1.98;;;;;;;8.42;62.07;98919.68;1787310;80;21080;-38
2021/11/22 05:36:38;;;;;;;2.87;1.85;;;;;;;8.39;62.14;98923.63;1783459;80;21120;-38
2021/11/22 05:39:06;;;;;;;2.17;1.77;;;;;;;8.33;62.24;98930.48;1779750;78;20953;-38
2021/11/22 05:41:33;;;;;;;4.08;2.42;;;;;;;8.25;62.30;98920.84;1781702;78;21054;-38
2021/11/22 05:44:01;;;;;;;4.17;2.17;;;;;;;8.20;62.57;98937.88;1778621;79;21561;-38
2021/11/22 05:46:30;;;;;;;4.15;2.20;;;;;;;8.17;62.81;98929.14;1789218;79;21049;-38
2021/11/22 05:48:57;;;;;;;3.90;2.20;;;;;;;8.15;63.00;98944.91;1784432;79;21125;-38
2021/11/22 05:51:25;;;;;;;3.80;1.95;;;;;;;8.16;63.03;98947.27;1775344;80;20921;-38
2021/11/22 05:53:53;;;;;;;3.90;2.10;;;;;;;8.23;63.07;98952.80;1772006;80;20980;-38
2021/11/22 05:56:20;;;;;;;2.52;1.65;;;;;;;8.36;63.03;98947.31;1789432;80;21003;-38
2021/11/22 05:58:47;;;;;;;4.70;2.37;;;;;;;8.44;62.82;98958.47;1755004;81;21071;-37
2021/11/22 06:01:14;;;;;;;2.65;1.98;;;;;;;8.49;62.66;98958.98;1722688;83;21195;-38
2021/11/22 06:03:41;;;;;;;2.83;2.00;;;;;;;8.51;62.50;98968.88;1722881;82;20977;-38
2021/11/22 06:06:09;;;;;;;2.80;2.10;;;;;;;8.53;62.36;98965.23;1725099;81;21035;-38
2021/11/22 06:08:36;;;;;;;2.33;1.98;;;;;;;8.52;62.40;98971.77;1748194;80;20905;-38
2021/11/22 06:11:03;;;;;;;3.08;1.98;;;;;;;8.51;62.34;98969.44;1729942;82;21088;-38
2021/11/22 06:13:30;;;;;;;4.03;2.22;;;;;;;8.48;62.33;98982.28;1716407;82;21197;-38
2021/11/22 06:15:58;;;;;;;2.30;2.00;;;;;;;8.47;62.38;98986.14;1732394;81;21025;-38
2021/11/22 06:18:25;;;;;;;3.17;2.22;;;;;;;8.46;62.39;98996.73;1741746;82;21629;-38
2021/11/22 06:20:52;;;;;;;4.47;2.12;;;;;;;8.44;62.21;98988.19;1720027;82;21444;-39
2021/11/22 06:23:19;;;;;;;5.50;2.00;;;;;;;8.34;62.26;98996.28;1735519;82;21099;-38
2021/11/22 06:25:46;;;;;;;3.08;2.30;;;;;;;8.28;62.27;98994.38;1731903;82;21152;-38
2021/11/22 06:28:14;;;;;;;3.80;2.05;;;;;;;8.24;62.31;98995.44;1723176;81;20985;-38
2021/11/22 06:30:41;;;;;;;4.70;2.17;;;;;;;8.24;62.38;98997.58;1733256;81;21069;-38
2021/11/22 06:33:08;;;;;;;2.45;1.92;;;;;;;8.28;62.38;98995.73;1742381;81;20972;-38
2021/11/22 06:35:36;;;;;;;4.10;2.02;;;;;;;8.29;62.16;99001.39;1751576;80;21539;-38
2021/11/22 06:38:04;;;;;;;4.08;2.20;;;;;;;8.27;62.04;99002.86;1770373;80;21924;-38
2021/11/22 06:40:31;;;;;;;3.60;2.42;;;;;;;8.24;61.89;99006.24;1719559;82;20929;-38
2021/11/22 06:42:58;;;;;;;4.08;2.10;;;;;;;8.20;61.82;99010.22;1734342;80;21023;-38
2021/11/22 06:45:27;;;;;;;2.33;1.80;;;;;;;8.17;61.82;99010.94;1781911;80;21015;-38
2021/11/22 06:47:55;;;;;;;4.00;1.87;;;;;;;8.14;61.84;99012.97;1732346;82;21087;-38
2021/11/22 06:50:21;;;;;;;4.75;2.10;;;;;;;8.13;61.91;99010.64;1760171;80;21075;-38
2021/11/22 06:52:48;;;;;;;4.03;1.67;;;;;;;8.15;61.75;99019.94;1773816;80;21629;-38
2021/11/22 06:55:16;;;;;;;1.77;1.32;;;;;;;8.17;61.27;99023.09;1777247;80;21009;-38
2021/11/22 06:57:43;;;;;;;1.20;1.00;;;;;;;8.15;60.92;99021.30;1731817;80;21020;-38
2021/11/22 07:00:12;;;;;;;1.65;1.00;;;;;;;8.18;60.07;99026.58;1741981;80;21040;-38
2021/11/22 07:02:39;;;;;;;1.42;0.98;;;;;;;8.18;59.69;99029.27;1752746;80;21085;-38
2021/11/22 07:05:07;;;;;;;1.80;1.02;;;;;;;8.19;59.31;99029.47;1769309;80;21008;-38
2021/11/22 07:07:35;;;;;;;1.35;0.90;;;;;;;8.18;59.18;99031.38;1740951;82;21495;-38
2021/11/22 07:10:03;;;;;;;0.70;0.70;;;;;;;8.20;58.72;99039.92;1740479;82;21044;-39
2021/11/22 07:12:30;;;;;;;0.75;0.70;;;;;;;7.91;58.38;98989.11;1748968;82;21057;-38
2021/11/22 07:14:57;;;;;;;1.47;0.80;;;;;;;8.20;58.03;99039.92;1694243;83;21148;-38
2021/11/22 07:17:24;;;;;;;1.55;0.95;;;;;;;8.18;57.71;99051.63;1712841;82;21485;-38
2021/11/22 07:19:53;;;;;;;0.90;0.75;;;;;;;8.15;57.63;99061.01;1796511;79;20963;-39
2021/11/22 07:22:20;;;;;;;1.12;0.80;;;;;;;8.11;57.88;99062.28;1795119;79;21020;-38
2021/11/22 07:24:47;;;;;;;0.78;0.75;;;;;;;8.12;57.68;99059.02;1781474;79;21080;-38
2021/11/22 07:27:14;;;;;;;0.90;0.60;;;;;;;8.12;57.79;99063.86;1775892;80;21120;-38
2021/11/22 07:29:41;;;;;;;1.02;0.70;;;;;;;8.18;57.71;99061.08;1768542;79;21073;-39
2021/11/22 07:32:10;;;;;;;0.90;0.70;;;;;;;8.21;57.49;99068.50;1770975;80;20965;-38
2021/11/22 07:34:38;;;;;;;0.70;0.70;;;;;;;8.23;57.71;99072.19;1775814;78;21105;-38
2021/11/22 07:37:05;;;;;;;0.72;0.72;;;;;;;8.27;57.51;99076.56;1758225;81;21007;-38
2021/11/22 07:39:32;;;;;;;1.37;0.90;;;;;;;8.31;57.49;99077.23;1763687;78;21141;-38
2021/11/22 07:41:59;;;;;;;1.02;0.90;;;;;;;8.34;57.30;99083.27;1761724;80;21008;-38
2021/11/22 07:44:27;;;;;;;1.00;0.88;;;;;;;8.35;57.19;99082.92;1788861;80;20957;-38
2021/11/22 07:46:57;;;;;;;4.35;0.90;;;;;;;8.36;57.25;99086.41;1789543;80;21007;-38
2021/11/22 07:49:24;;;;;;;1.17;0.70;;;;;;;8.37;57.13;99082.02;1788751;79;21035;-38
2021/11/22 07:51:51;;;;;;;0.90;0.78;;;;;;;8.40;56.97;99091.33;1789426;80;21126;-38
2021/11/22 07:54:18;;;;;;;0.68;0.68;;;;;;;8.40;57.29;99088.06;1789380;80;20917;-38
2021/11/22 07:56:45;;;;;;;1.95;0.88;;;;;;;8.41;57.17;99095.60;1781782;79;21075;-38
2021/11/22 07:59:12;;;;;;;0.70;0.70;;;;;;;8.39;56.93;99107.31;1785425;80;20993;-38
2021/11/22 08:01:39;;;;;;;1.45;0.90;;;;;;;8.36;57.06;99104.76;1757865;81;21032;-38
2021/11/22 08:04:12;;;;;;;1.85;1.00;;;;;;;8.37;57.25;99106.33;1776803;78;21862;-38
2021/11/22 08:06:35;;;;;;;1.62;0.90;;;;;;;8.37;57.25;99111.73;1768791;79;21530;-38
2021/11/22 08:09:02;;;;;;;1.07;0.88;;;;;;;8.37;57.14;99118.48;1774253;79;21566;-38
2021/11/22 08:11:32;;;;;;;1.67;0.80;;;;;;;8.06;56.98;99071.20;1789514;78;21483;-39
2021/11/22 08:14:01;;;;;;;1.85;0.95;;;;;;;8.42;57.13;99119.57;1786487;80;21083;-39
2021/11/22 08:16:29;;;;;;;1.20;0.80;;;;;;;8.46;57.03;99122.34;1775717;80;21507;-39
2021/11/22 08:18:56;;;;;;;1.65;1.02;;;;;;;8.47;56.87;99119.27;1725126;81;21075;-40
2021/11/22 08:21:23;;;;;;;1.35;1.10;;;;;;;8.47;56.84;99119.87;1710890;82;21009;-39
2021/11/22 08:23:50;;;;;;;1.15;0.80;;;;;;;8.48;56.95;99126.81;1742763;82;21080;-39
2021/11/22 08:26:18;;;;;;;0.82;0.80;;;;;;;8.52;56.62;99123.66;1744966;82;21758;-39
2021/11/22 08:28:45;;;;;;;2.45;1.10;;;;;;;8.56;56.41;99135.32;1746078;82;21860;-39
2021/11/22 08:31:13;;;;;;;2.75;1.30;;;;;;;8.59;56.37;99134.05;1745778;82;20996;-38
2021/11/22 08:33:41;;;;;;;3.27;1.15;;;;;;;8.66;56.04;99140.98;1744635;82;21570;-39
2021/11/22 08:36:08;;;;;;;3.02;1.25;;;;;;;8.71;56.00;99142.63;1747264;82;21017;-39
2021/11/22 08:38:37;;;;;;;2.47;1.17;;;;;;;8.71;55.21;99148.03;1738531;80;21060;-39
2021/11/22 08:41:05;;;;;;;2.12;1.20;;;;;;;8.69;55.47;99143.53;1729914;82;21150;-40
2021/11/22 08:43:33;;;;;;;4.05;1.20;;;;;;;8.66;55.25;99145.03;1752984;80;21008;-39
2021/11/22 08:46:00;;;;;;;3.10;1.52;;;;;;;8.65;55.04;99152.91;1750471;80;21076;-39
2021/11/22 08:48:27;;;;;;;3.40;1.35;;;;;;;8.65;55.27;99154.27;1736073;82;21545;-39
2021/11/22 08:50:55;;;;;;;3.20;1.50;;;;;;;8.68;55.21;99158.17;1719244;82;21756;-39
2021/11/22 08:53:23;;;;;;;2.60;0.70;;;;;;;8.67;54.83;99160.09;1718999;83;21617;-39
2021/11/22 08:55:50;;;;;;;8.18;0.80;;;;;;;8.73;54.86;99161.39;1718934;83;20964;-39
2021/11/22 08:58:17;;;;;;;1.15;0.70;;;;;;;8.81;54.70;99169.67;1739573;80;21035;-39
2021/11/22 09:00:50;;;;;;;1.45;0.90;;;;;;;8.86;54.64;99174.81;1735634;82;20995;-39
2021/11/22 09:03:17;;;;;;;1.27;0.78;;;;;;;8.90;54.53;99164.29;1731857;80;21016;-39
2021/11/22 09:05:44;;;;;;;1.67;0.98;;;;;;;8.96;54.33;99158.80;1742198;81;21139;-39
2021/11/22 09:08:12;;;;;;;1.57;1.05;;;;;;;9.02;54.38;99169.56;1774741;79;20970;-39
2021/11/22 09:10:40;;;;;;;1.52;1.10;;;;;;;9.08;54.52;99163.31;1804259;79;21499;-39
2021/11/22 09:13:09;;;;;;;1.37;1.10;;;;;;;9.12;54.10;99166.31;1763714;80;21053;-39
2021/11/22 09:15:38;;;;;;;2.70;2.02;;;;;;;9.18;54.17;99166.81;1783726;79;21036;-39
2021/11/22 09:18:05;;;;;;;4.17;1.45;;;;;;;9.24;53.88;99168.68;1783594;78;21133;-39
2021/11/22 09:20:33;;;;;;;2.50;1.40;;;;;;;9.27;53.90;99167.39;1781197;79;21044;-40
2021/11/22 09:23:01;;;;;;;1.42;1.05;;;;;;;9.32;53.76;99164.97;1777527;80;20984;-39
2021/11/22 09:25:28;;;;;;;1.12;0.93;;;;;;;9.43;53.62;99166.77;1777556;80;20952;-39
2021/11/22 09:27:56;;;;;;;4.08;1.70;;;;;;;9.57;53.27;99164.34;1759527;80;21009;-39
2021/11/22 09:30:24;;;;;;;4.55;0.95;;;;;;;9.64;52.95;99166.38;1759415;80;21065;-39
2021/11/22 09:32:51;;;;;;;1.95;1.07;;;;;;;9.68;52.84;99165.91;1767395;79;20984;-39
2021/11/22 09:35:20;;;;;;;1.15;1.00;;;;;;;9.72;52.66;99166.75;1777153;80;20957;-39
2021/11/22 09:37:47;;;;;;;1.07;0.90;;;;;;;9.71;52.48;99163.83;1789060;80;21079;-39
2021/11/22 09:40:14;;;;;;;3.65;1.62;;;;;;;9.68;52.02;99169.18;1787347;78;21564;-39
2021/11/22 09:42:41;;;;;;;6.47;2.00;;;;;;;9.60;52.31;99168.24;1780072;80;21080;-39
2021/11/22 09:45:11;;;;;;;4.45;1.77;;;;;;;9.56;52.31;99175.52;1788813;80;20981;-39
2021/11/22 09:47:37;;;;;;;4.50;1.60;;;;;;;9.54;52.43;99177.78;1783128;79;20949;-39
2021/11/22 09:50:07;;;;;;;1.72;1.00;;;;;;;9.49;52.24;99174.79;1783382;80;20965;-39
2021/11/22 09:52:34;;;;;;;5.40;1.37;;;;;;;9.42;52.11;99168.47;1788970;80;21082;-39
2021/11/22 09:55:04;;;;;;;2.12;0.80;;;;;;;9.28;51.98;99162.77;1789090;79;21038;-40
2021/11/22 09:57:32;;;;;;;4.28;1.42;;;;;;;9.12;52.24;99170.36;1786245;80;21484;-39
2021/11/22 10:00:00;;;;;;;2.65;1.40;;;;;;;9.01;52.46;99167.98;1782216;80;21588;-39
2021/11/22 10:02:48;;;;;;;6.08;1.10;;;;;;;8.95;52.57;99176.19;1763164;80;21080;-39
2021/11/22 10:05:29;;;;;;;5.33;1.50;;;;;;;9.02;52.77;99173.62;1779191;78;21071;-39
2021/11/22 10:08:05;;;;;;;8.13;1.60;;;;;;;9.22;52.61;99173.08;1788782;79;21124;-39
2021/11/22 10:10:42;;;;;;;5.30;1.90;;;;;;;9.52;52.04;99178.73;1785125;79;20999;-39
2021/11/22 10:13:27;;;;;;;1.92;1.30;;;;;;;9.86;51.51;99168.37;1789411;79;20980;-39
2021/11/22 10:16:02;;;;;;;2.20;1.22;;;;;;;10.18;50.41;99167.60;1778672;78;20961;-39
2021/11/22 10:18:32;;;;;;;2.47;1.50;;;;;;;10.48;49.64;99166.36;1775499;80;21051;-39
2021/11/22 10:21:08;;;;;;;1.70;1.30;;;;;;;10.66;48.90;99170.13;1783292;78;21803;-39
2021/11/22 10:23:38;;;;;;;1.45;1.10;;;;;;;10.79;48.77;99172.86;1774752;79;20976;-40
2021/11/22 10:26:08;;;;;;;3.12;1.20;;;;;;;10.92;48.73;99165.28;1786421;80;20933;-40
2021/11/22 10:28:38;;;;;;;3.15;1.17;;;;;;;11.08;48.23;99173.27;1782083;78;21574;-40
2021/11/22 10:31:12;;;;;;;5.10;1.70;;;;;;;10.83;47.62;99124.09;1779096;78;21020;-40
2021/11/22 10:33:39;;;;;;;7.33;1.95;;;;;;;11.10;47.23;99170.95;1758996;78;21099;-40
2021/11/22 10:36:10;;;;;;;2.98;1.12;;;;;;;11.08;47.17;99174.62;1769273;81;21488;-39
2021/11/22 10:38:40;;;;;;;1.37;0.85;;;;;;;11.14;47.38;99167.70;1769278;79;21492;-39
2021/11/22 10:41:18;;;;;;;4.25;1.20;;;;;;;11.25;46.98;99165.34;1762723;80;21579;-39
2021/11/22 10:44:03;;;;;;;1.72;1.00;;;;;;;11.34;46.35;99169.13;1762672;81;21065;-39
2021/11/22 10:49:34;;;;;;;1.77;0.78;;;;;;;11.58;45.54;99166.51;1812831;77;22758;-40
2021/11/22 10:52:16;;;;;;;6.42;0.93;;;;;;;11.70;45.39;99168.99;1766519;80;21271;-40
2021/11/22 10:54:57;;;;;;;1.10;0.75;;;;;;;12.01;44.66;99169.92;1786105;79;21128;-40
2021/11/22 10:57:33;;;;;;;1.20;0.62;;;;;;;12.23;43.73;99169.56;1784413;80;20898;-40
2021/11/22 11:00:00;;;;;;;1.00;0.65;;;;;;;12.46;43.57;99167.42;1786183;79;21008;-40
2021/11/22 11:02:40;;;;;;;1.87;1.60;;;;;;;12.78;42.58;99171.73;1783336;80;20940;-40
2021/11/22 11:05:08;;;;;;;2.15;1.30;;;;;;;13.07;42.24;99172.11;1782555;79;20937;-41
2021/11/22 11:07:37;;;;;;;2.77;1.70;;;;;;;13.31;41.81;99182.20;1784608;78;21173;-40
2021/11/22 11:10:05;;;;;;;1.60;1.30;;;;;;;13.57;40.94;99178.41;1783653;80;20890;-39
2021/11/22 11:12:32;;;;;;;1.82;1.52;;;;;;;13.87;40.15;99178.33;1783644;80;20919;-40
2021/11/22 11:14:59;;;;;;;1.90;1.50;;;;;;;14.17;40.21;99178.00;1775359;79;21024;-40
2021/11/22 11:17:37;;;;;;;2.25;1.80;;;;;;;14.52;39.00;99177.87;1807949;79;21076;-40
2021/11/22 11:20:11;;;;;;;2.65;2.10;;;;;;;14.66;38.48;99176.50;1813729;79;21109;-40
2021/11/22 11:22:38;;;;;;;2.72;2.22;;;;;;;14.63;38.53;99162.25;1814004;79;20984;-40
2021/11/22 11:25:06;;;;;;;3.20;2.20;;;;;;;14.43;38.60;99171.99;1813682;79;21633;-40
2021/11/22 11:27:40;;;;;;;2.90;2.30;;;;;;;14.18;38.99;99174.70;1811645;79;21765;-40
2021/11/22 11:30:10;;;;;;;3.12;2.55;;;;;;;13.97;39.31;99178.16;1796526;79;21061;-40
2021/11/22 11:32:39;;;;;;;2.55;2.08;;;;;;;13.74;39.73;99177.13;1784499;79;21037;-40
2021/11/22 11:35:17;;;;;;;4.45;2.60;;;;;;;13.65;40.03;99181.38;1784049;80;20957;-40
2021/11/22 11:38:07;;;;;;;3.35;2.40;;;;;;;13.58;39.93;99186.20;1782816;80;21085;-40
2021/11/22 11:41:08;;;;;;;2.35;2.10;;;;;;;13.43;39.91;99185.95;1785269;79;21061;-40
2021/11/22 11:43:52;;;;;;;3.95;2.37;;;;;;;13.14;40.29;99186.37;1806371;79;20953;-40
2021/11/22 11:46:42;;;;;;;2.40;1.92;;;;;;;12.79;40.65;99182.03;1784332;78;21136;-40
2021/11/22 11:49:12;;;;;;;2.67;2.10;;;;;;;12.43;41.33;99179.06;1747697;81;21013;-39